Time;durP1;ratioP1;P1;durP2;ratioP2;P2;SDS_P1;SDS_P2;PMS_P1;PMS_P2;Temp;Humidity;BMP_temperature;BMP_pressure;BME280_temperature;BME280_humidity;BME280_pressure;Samples;Min_cycle;Max_cycle;Signal;HPM_P1;HPM_P2
2023/12/17 00:01:22;;;;;;;11.53;4.40;;;6.30;99.90;;;;;;7870183;28;20173;-87
2023/12/17 00:05:08;;;;;;;12.90;4.87;;;6.30;99.90;;;;;;7869175;28;20269;-87
2023/12/17 00:08:53;;;;;;;7.43;4.43;;;6.30;99.90;;;;;;7869204;28;20184;-88
2023/12/17 00:12:39;;;;;;;10.30;4.30;;;6.30;99.90;;;;;;7868889;28;20173;-88
2023/12/17 00:16:25;;;;;;;7.67;4.27;;;6.20;99.90;;;;;;7868634;28;20204;-88
2023/12/17 00:20:11;;;;;;;10.10;4.53;;;6.30;99.90;;;;;;7869001;28;20299;-88
2023/12/17 00:23:57;;;;;;;9.70;3.97;;;6.20;99.90;;;;;;7868477;28;20219;-87
2023/12/17 00:27:42;;;;;;;8.27;4.37;;;6.30;99.90;;;;;;7880013;28;20197;-87
2023/12/17 00:31:28;;;;;;;10.70;4.30;;;6.20;99.90;;;;;;7884104;28;20178;-88
2023/12/17 00:35:14;;;;;;;11.13;4.57;;;6.20;99.90;;;;;;7882860;28;20201;-87
2023/12/17 00:38:59;;;;;;;6.60;3.90;;;6.20;99.90;;;;;;7868698;28;20211;-88
2023/12/17 00:42:45;;;;;;;12.00;4.43;;;6.20;99.90;;;;;;7868617;28;20177;-87
2023/12/17 00:46:30;;;;;;;8.77;4.27;;;6.10;99.90;;;;;;7868092;28;20330;-88
2023/12/17 00:50:16;;;;;;;10.70;4.50;;;6.10;99.90;;;;;;7868316;28;20173;-87
2023/12/17 00:54:02;;;;;;;7.00;3.83;;;6.10;99.90;;;;;;7868107;28;20291;-87
2023/12/17 00:57:47;;;;;;;11.67;4.23;;;6.10;99.90;;;;;;7868156;28;20208;-88
2023/12/17 01:01:33;;;;;;;8.37;4.30;;;6.10;99.90;;;;;;7868192;28;20700;-88
2023/12/17 01:05:19;;;;;;;7.47;4.37;;;6.20;99.90;;;;;;7867897;28;20261;-88
2023/12/17 01:09:04;;;;;;;8.37;4.03;;;6.10;99.90;;;;;;7868186;28;20272;-87
2023/12/17 01:12:50;;;;;;;11.47;3.80;;;6.10;99.90;;;;;;7870699;28;20173;-88
2023/12/17 01:16:36;;;;;;;7.60;3.43;;;6.10;99.90;;;;;;7865100;28;20204;-87
2023/12/17 01:20:21;;;;;;;8.93;3.87;;;6.10;99.90;;;;;;7843083;28;20660;-88
2023/12/17 01:24:07;;;;;;;10.73;4.40;;;6.10;99.90;;;;;;7842882;28;20261;-88
2023/12/17 01:27:53;;;;;;;11.57;3.83;;;6.10;99.90;;;;;;7841887;28;20208;-87
2023/12/17 01:31:38;;;;;;;5.67;3.37;;;6.00;99.90;;;;;;7845740;28;20190;-88
2023/12/17 01:35:24;;;;;;;8.20;3.57;;;6.00;99.90;;;;;;7842487;28;20204;-88
2023/12/17 01:39:09;;;;;;;8.63;3.30;;;6.00;99.90;;;;;;7842595;28;20873;-88
2023/12/17 01:42:56;;;;;;;10.93;4.10;;;6.00;99.90;;;;;;7842527;28;20654;-88
2023/12/17 01:46:42;;;;;;;9.60;4.07;;;5.90;99.90;;;;;;7842647;28;20209;-87
2023/12/17 01:50:29;;;;;;;10.10;3.33;;;5.90;99.90;;;;;;7842386;28;20182;-88
2023/12/17 01:54:14;;;;;;;9.23;3.60;;;5.90;99.90;;;;;;7843276;28;20197;-88
2023/12/17 01:58:02;;;;;;;11.63;4.10;;;5.90;99.90;;;;;;7841989;28;20209;-88
2023/12/17 02:01:52;;;;;;;8.00;3.33;;;5.90;99.90;;;;;;7842265;28;20186;-88
2023/12/17 02:05:37;;;;;;;7.00;3.50;;;5.90;99.90;;;;;;7841693;28;20205;-88
2023/12/17 02:09:23;;;;;;;8.17;3.37;;;5.90;99.90;;;;;;7841512;28;20186;-88
2023/12/17 02:13:10;;;;;;;6.90;3.30;;;5.90;99.90;;;;;;7841481;28;20197;-88
2023/12/17 02:16:55;;;;;;;9.37;3.47;;;5.90;99.90;;;;;;7841073;28;20201;-88
2023/12/17 02:20:43;;;;;;;7.03;3.40;;;5.90;99.90;;;;;;7850517;28;20216;-88
2023/12/17 02:24:29;;;;;;;8.70;3.13;;;5.90;99.90;;;;;;7871460;28;20178;-88
2023/12/17 02:28:15;;;;;;;5.93;2.97;;;5.90;99.90;;;;;;7872161;28;20196;-89
2023/12/17 02:32:00;;;;;;;5.17;3.20;;;5.80;99.90;;;;;;7872043;28;20238;-88
2023/12/17 02:35:46;;;;;;;8.47;3.20;;;5.80;99.90;;;;;;7871740;28;20240;-88
2023/12/17 02:39:31;;;;;;;9.73;2.83;;;5.90;99.90;;;;;;7871871;28;20205;-88
2023/12/17 02:43:17;;;;;;;4.60;2.63;;;5.90;99.90;;;;;;7871924;28;20582;-88
2023/12/17 02:47:03;;;;;;;8.53;3.50;;;5.80;99.90;;;;;;7871474;28;20208;-88
2023/12/17 02:50:48;;;;;;;6.93;2.63;;;5.80;99.90;;;;;;7871481;28;20213;-88
2023/12/17 02:54:35;;;;;;;7.40;2.60;;;5.80;99.90;;;;;;7870926;28;20267;-88
2023/12/17 02:58:22;;;;;;;5.80;2.30;;;5.80;99.90;;;;;;7871494;28;20221;-88
2023/12/17 03:02:07;;;;;;;9.93;2.70;;;5.80;99.90;;;;;;7871379;28;20235;-88
2023/12/17 03:05:53;;;;;;;4.57;2.30;;;5.80;99.90;;;;;;7870869;28;20599;-88
2023/12/17 03:09:39;;;;;;;8.90;2.60;;;5.80;99.90;;;;;;7870933;28;20267;-87
2023/12/17 03:13:24;;;;;;;6.23;2.47;;;5.80;99.90;;;;;;7871341;28;20188;-88
2023/12/17 03:17:10;;;;;;;9.93;2.40;;;5.70;99.90;;;;;;7870626;28;20201;-88
2023/12/17 03:20:55;;;;;;;4.70;2.20;;;5.70;99.90;;;;;;7870660;28;20270;-88
2023/12/17 03:24:41;;;;;;;7.77;2.73;;;5.70;99.90;;;;;;7870352;28;20197;-88
2023/12/17 03:28:27;;;;;;;5.50;2.63;;;5.70;99.90;;;;;;7870502;28;20354;-89
2023/12/17 03:32:14;;;;;;;6.33;2.30;;;5.70;99.90;;;;;;7844377;28;20189;-88
2023/12/17 03:36:00;;;;;;;3.83;2.37;;;5.60;99.90;;;;;;7865830;28;20240;-88
2023/12/17 03:39:46;;;;;;;6.97;2.60;;;5.70;99.90;;;;;;7869918;28;20211;-87
2023/12/17 03:43:32;;;;;;;7.17;2.20;;;5.60;99.90;;;;;;7869841;28;20182;-88
2023/12/17 03:47:17;;;;;;;5.23;1.97;;;5.60;99.90;;;;;;7869563;28;20204;-88
2023/12/17 03:51:04;;;;;;;3.40;2.07;;;5.60;99.90;;;;;;7869768;28;20212;-87
2023/12/17 03:54:49;;;;;;;8.10;2.47;;;5.60;99.90;;;;;;7869286;28;20208;-88
2023/12/17 03:58:39;;;;;;;6.30;2.20;;;5.60;99.90;;;;;;7838749;28;20209;-88
2023/12/17 04:02:25;;;;;;;7.50;2.07;;;5.60;99.90;;;;;;7838660;28;20178;-88
2023/12/17 04:06:10;;;;;;;4.37;1.93;;;5.60;99.90;;;;;;7860455;28;20186;-90
2023/12/17 04:09:57;;;;;;;6.27;2.10;;;5.70;99.90;;;;;;7879820;28;20155;-88
2023/12/17 04:13:42;;;;;;;6.63;2.33;;;5.70;99.90;;;;;;7863860;28;20174;-88
2023/12/17 04:17:29;;;;;;;7.53;2.27;;;5.60;99.90;;;;;;7839567;28;20224;-87
2023/12/17 04:21:15;;;;;;;3.37;1.87;;;5.60;99.90;;;;;;7838195;28;20174;-88
2023/12/17 04:25:00;;;;;;;11.50;2.43;;;5.70;99.90;;;;;;7837748;28;20209;-89
2023/12/17 04:28:46;;;;;;;5.03;2.30;;;5.60;99.90;;;;;;7837762;28;20322;-88
2023/12/17 04:32:31;;;;;;;4.90;2.20;;;5.60;99.90;;;;;;7867979;28;20278;-88
2023/12/17 04:36:17;;;;;;;6.63;2.10;;;5.70;99.90;;;;;;7868733;28;20197;-88
2023/12/17 04:40:03;;;;;;;3.30;1.77;;;5.70;99.90;;;;;;7868824;28;20201;-88
2023/12/17 04:43:49;;;;;;;5.07;1.80;;;5.70;99.90;;;;;;7851303;28;20185;-87
2023/12/17 04:47:36;;;;;;;4.10;1.90;;;5.70;99.90;;;;;;7849503;28;20722;-87
2023/12/17 04:51:22;;;;;;;4.80;1.80;;;5.70;99.90;;;;;;7863835;28;20195;-88
2023/12/17 04:55:08;;;;;;;4.80;1.80;;;5.70;99.90;;;;;;7856713;28;20730;-88
2023/12/17 04:58:53;;;;;;;4.30;1.50;;;5.70;99.90;;;;;;7835984;28;20576;-87
2023/12/17 05:02:39;;;;;;;4.27;1.70;;;5.70;99.90;;;;;;7836159;28;20178;-88
2023/12/17 05:06:24;;;;;;;3.50;1.67;;;5.70;99.90;;;;;;7835805;28;20233;-87
2023/12/17 05:10:13;;;;;;;3.03;1.43;;;5.70;99.90;;;;;;7836359;28;20193;-88
2023/12/17 05:13:59;;;;;;;3.13;1.90;;;5.70;99.90;;;;;;7836167;28;20228;-88
2023/12/17 05:17:44;;;;;;;3.93;1.80;;;5.60;99.90;;;;;;7836360;28;20205;-87
2023/12/17 05:21:30;;;;;;;3.20;1.73;;;5.70;99.90;;;;;;7836426;28;20178;-87
2023/12/17 05:25:16;;;;;;;5.67;1.73;;;5.60;99.90;;;;;;7850667;28;20224;-88
2023/12/17 05:29:01;;;;;;;2.80;1.93;;;5.50;99.90;;;;;;7867510;28;21070;-88
2023/12/17 05:32:51;;;;;;;1.77;1.30;;;5.60;99.90;;;;;;7837909;28;20559;-88
2023/12/17 05:36:38;;;;;;;3.67;1.63;;;5.60;99.90;;;;;;7835998;28;20308;-87
2023/12/17 05:40:23;;;;;;;3.97;1.87;;;5.50;99.90;;;;;;7836588;28;20212;-88
2023/12/17 05:44:09;;;;;;;3.93;1.83;;;5.60;99.90;;;;;;7836205;28;20178;-87
2023/12/17 05:47:54;;;;;;;4.17;2.07;;;5.50;99.90;;;;;;7836329;28;20205;-88
2023/12/17 05:51:43;;;;;;;10.00;3.40;;;5.50;99.90;;;;;;7836349;28;20805;-87
2023/12/17 05:55:29;;;;;;;17.57;10.30;;;5.40;99.90;;;;;;7837088;28;20198;-88
2023/12/17 05:59:15;;;;;;;17.53;9.87;;;5.40;99.90;;;;;;7839034;28;20684;-88
2023/12/17 06:03:00;;;;;;;9.53;4.90;;;5.40;99.90;;;;;;7841682;28;20186;-88
2023/12/17 06:06:46;;;;;;;6.73;2.77;;;5.40;99.90;;;;;;7841356;28;20205;-88
2023/12/17 06:10:32;;;;;;;4.67;2.97;;;5.30;99.90;;;;;;7841657;28;20223;-87
2023/12/17 06:14:18;;;;;;;6.03;3.47;;;5.30;99.90;;;;;;7841165;28;20189;-88
2023/12/17 06:18:03;;;;;;;6.10;3.00;;;5.30;99.90;;;;;;7841421;28;20296;-87
2023/12/17 06:21:49;;;;;;;4.70;2.93;;;5.20;99.90;;;;;;7841301;28;20293;-88
2023/12/17 06:25:35;;;;;;;5.27;2.90;;;5.20;99.90;;;;;;7840963;28;20197;-88
2023/12/17 06:29:20;;;;;;;4.53;3.10;;;5.10;99.90;;;;;;7841233;28;20186;-88
2023/12/17 06:33:07;;;;;;;3.60;2.60;;;5.20;99.90;;;;;;7841035;28;20189;-88
2023/12/17 06:36:55;;;;;;;7.63;3.50;;;5.00;99.90;;;;;;7840516;28;20205;-88
2023/12/17 06:40:44;;;;;;;6.30;3.33;;;5.00;99.90;;;;;;7840782;28;20244;-88
2023/12/17 06:44:30;;;;;;;5.97;3.53;;;4.90;99.90;;;;;;7857017;28;20200;-88
2023/12/17 06:48:21;;;;;;;8.20;3.87;;;5.00;99.90;;;;;;7870286;28;20189;-87
2023/12/17 06:52:06;;;;;;;5.17;3.23;;;4.90;99.90;;;;;;7871173;28;20289;-87
2023/12/17 06:55:52;;;;;;;4.90;2.47;;;4.90;99.90;;;;;;7871513;28;20206;-88
2023/12/17 06:59:38;;;;;;;3.77;2.67;;;4.90;99.90;;;;;;7870677;28;20213;-88
2023/12/17 07:03:24;;;;;;;4.43;2.47;;;4.80;99.90;;;;;;7872012;28;20177;-87
2023/12/17 07:07:09;;;;;;;4.33;2.50;;;4.80;99.90;;;;;;7872097;28;20205;-87
2023/12/17 07:10:55;;;;;;;6.83;2.90;;;4.80;99.90;;;;;;7871058;28;20635;-88
2023/12/17 07:14:41;;;;;;;5.30;2.60;;;4.80;99.90;;;;;;7871798;28;20196;-89
2023/12/17 07:18:26;;;;;;;8.50;2.60;;;4.70;99.90;;;;;;7870197;28;20271;-88
2023/12/17 07:22:12;;;;;;;4.33;2.70;;;4.80;99.90;;;;;;7870320;28;20181;-88
2023/12/17 07:25:58;;;;;;;4.90;2.53;;;4.70;99.90;;;;;;7869836;28;20201;-88
2023/12/17 07:29:43;;;;;;;5.10;2.40;;;4.60;99.90;;;;;;7849060;28;20663;-87
2023/12/17 07:33:29;;;;;;;6.60;3.47;;;4.60;99.90;;;;;;7838745;28;20220;-89
2023/12/17 07:37:15;;;;;;;7.60;3.30;;;4.70;99.90;;;;;;7839738;28;20533;-88
2023/12/17 07:41:01;;;;;;;7.53;3.27;;;4.70;99.90;;;;;;7849061;28;20182;-87
2023/12/17 07:44:46;;;;;;;6.27;3.20;;;4.60;99.90;;;;;;7841432;28;20197;-88
2023/12/17 07:48:39;;;;;;;4.83;2.63;;;4.70;99.90;;;;;;7869526;28;20566;-88
2023/12/17 07:52:25;;;;;;;6.37;3.13;;;4.70;99.90;;;;;;7869257;28;20193;-88
2023/12/17 07:56:10;;;;;;;6.87;3.27;;;4.60;99.90;;;;;;7868862;28;20666;-88
2023/12/17 07:59:56;;;;;;;9.37;3.50;;;4.60;99.90;;;;;;7869147;28;20263;-88
2023/12/17 08:03:42;;;;;;;7.03;3.53;;;4.70;99.90;;;;;;7854151;28;20194;-89
2023/12/17 08:07:27;;;;;;;5.73;3.20;;;4.60;99.90;;;;;;7839412;28;20216;-88
2023/12/17 08:11:13;;;;;;;5.17;2.83;;;4.60;99.90;;;;;;7837932;28;20636;-88
2023/12/17 08:14:58;;;;;;;5.00;2.63;;;4.60;99.90;;;;;;7838616;28;20591;-88
2023/12/17 08:18:44;;;;;;;6.40;2.50;;;4.50;99.90;;;;;;7837612;28;20205;-88
2023/12/17 08:22:39;;;;;;;5.63;2.53;;;4.60;99.90;;;;;;7854888;28;20185;-88
2023/12/17 08:26:25;;;;;;;4.83;2.57;;;4.60;99.90;;;;;;7867833;28;20212;-88
2023/12/17 08:30:17;;;;;;;4.33;2.70;;;4.50;99.90;;;;;;7862289;28;20251;-88
2023/12/17 08:34:03;;;;;;;5.30;2.97;;;4.60;99.90;;;;;;7856891;28;20185;-88
2023/12/17 08:37:50;;;;;;;8.03;3.27;;;4.60;99.90;;;;;;7862476;28;20213;-88
2023/12/17 08:41:35;;;;;;;6.70;3.13;;;4.60;99.90;;;;;;7839470;28;20247;-88
2023/12/17 08:45:21;;;;;;;11.63;4.07;;;4.60;99.90;;;;;;7870345;28;20201;-87
2023/12/17 08:49:07;;;;;;;14.40;5.77;;;4.60;99.90;;;;;;7903913;28;20165;-90
2023/12/17 08:52:52;;;;;;;10.57;5.20;;;4.60;99.90;;;;;;7897962;28;20231;-89
2023/12/17 08:56:39;;;;;;;15.20;6.80;;;4.70;99.90;;;;;;7882087;28;20258;-87
2023/12/17 09:00:25;;;;;;;28.07;14.37;;;4.70;99.90;;;;;;7869008;28;20734;-88
2023/12/17 09:04:11;;;;;;;27.37;12.23;;;4.60;99.90;;;;;;7868142;28;20265;-87
2023/12/17 09:07:56;;;;;;;13.60;5.30;;;4.60;99.90;;;;;;7868901;28;20201;-88
2023/12/17 09:11:43;;;;;;;8.27;4.40;;;4.60;99.90;;;;;;7867716;28;20185;-87
2023/12/17 09:15:29;;;;;;;12.63;3.90;;;4.70;99.90;;;;;;7867282;28;20207;-88
2023/12/17 09:19:15;;;;;;;9.60;4.03;;;4.70;99.90;;;;;;7867617;28;20205;-88
2023/12/17 09:23:02;;;;;;;10.40;4.20;;;4.70;99.90;;;;;;7860362;28;20196;-88
2023/12/17 09:26:48;;;;;;;9.03;3.70;;;4.70;99.90;;;;;;7854989;28;20746;-88
2023/12/17 09:30:49;;;;;;;9.17;4.20;;;4.70;99.90;;;;;;7859724;28;20189;-88
2023/12/17 09:34:35;;;;;;;13.17;5.33;;;4.80;99.90;;;;;;7839029;28;20189;-88
2023/12/17 09:38:25;;;;;;;11.30;4.23;;;4.80;99.90;;;;;;7856560;28;20216;-88
2023/12/17 09:42:11;;;;;;;10.47;4.60;;;4.90;99.90;;;;;;7869019;28;20304;-88
2023/12/17 09:46:13;;;;;;;7.77;3.90;;;4.90;99.90;;;;;;7866075;28;20217;-89
2023/12/17 09:49:58;;;;;;;8.30;4.17;;;5.00;99.90;;;;;;7872429;28;20200;-88
2023/12/17 09:53:44;;;;;;;12.33;4.90;;;5.00;99.90;;;;;;7865337;28;20320;-88
2023/12/17 09:57:30;;;;;;;19.60;5.60;;;5.10;99.90;;;;;;7841114;28;20197;-87
2023/12/17 10:01:24;;;;;;;7.60;4.40;;;5.10;99.90;;;;;;7841258;28;20526;-86
2023/12/17 10:05:19;;;;;;;10.10;4.57;;;5.10;99.90;;;;;;7843983;28;20204;-88
2023/12/17 10:09:06;;;;;;;8.37;4.37;;;5.20;99.90;;;;;;7851556;28;20196;-88
2023/12/17 10:12:52;;;;;;;9.73;4.23;;;5.20;99.90;;;;;;7847250;28;20189;-88
2023/12/17 10:16:38;;;;;;;11.40;4.40;;;5.20;99.90;;;;;;7840773;28;20217;-88
2023/12/17 10:20:24;;;;;;;10.20;5.67;;;5.30;99.90;;;;;;7844372;28;20678;-87
2023/12/17 10:24:10;;;;;;;13.13;5.10;;;5.30;99.90;;;;;;7860359;28;20181;-88
2023/12/17 10:27:59;;;;;;;16.07;5.77;;;5.40;99.90;;;;;;7849688;28;20198;-88
2023/12/17 10:31:45;;;;;;;9.80;5.00;;;5.40;99.90;;;;;;7865178;28;20193;-88
2023/12/17 10:35:31;;;;;;;13.67;5.90;;;5.60;99.90;;;;;;7870866;28;20205;-88
2023/12/17 10:39:24;;;;;;;21.83;9.83;;;5.60;99.90;;;;;;7857729;28;20946;-88
2023/12/17 10:43:12;;;;;;;29.13;17.63;;;5.50;99.90;;;;;;7870777;28;20177;-88
2023/12/17 10:47:01;;;;;;;13.07;6.50;;;5.60;99.90;;;;;;7870585;28;20283;-87
2023/12/17 10:50:48;;;;;;;15.03;5.20;;;5.70;99.90;;;;;;7871025;28;20188;-88
2023/12/17 10:54:44;;;;;;;9.40;5.10;;;5.80;99.90;;;;;;7871063;28;20204;-88
2023/12/17 10:58:30;;;;;;;12.83;5.30;;;5.80;99.90;;;;;;7857125;28;20330;-89
2023/12/17 11:02:22;;;;;;;13.50;5.90;;;5.80;99.90;;;;;;7871173;28;20181;-87
2023/12/17 11:06:07;;;;;;;18.77;8.70;;;5.90;99.90;;;;;;7847858;28;20193;-87
2023/12/17 11:09:54;;;;;;;11.93;6.20;;;6.00;99.90;;;;;;7839504;28;20185;-87
2023/12/17 11:13:41;;;;;;;12.60;5.23;;;6.00;99.90;;;;;;7869095;28;20181;-87
2023/12/17 11:17:27;;;;;;;14.37;6.27;;;6.10;99.90;;;;;;7840848;28;20259;-88
2023/12/17 11:21:13;;;;;;;15.37;5.97;;;6.10;99.90;;;;;;7839274;28;20276;-87
2023/12/17 11:24:59;;;;;;;13.77;5.70;;;6.10;99.90;;;;;;7839116;28;20607;-88
2023/12/17 11:28:46;;;;;;;11.83;5.70;;;6.10;99.90;;;;;;7843407;28;20216;-87
2023/12/17 11:32:32;;;;;;;12.37;6.43;;;6.20;99.90;;;;;;7869919;28;20234;-86
2023/12/17 11:36:18;;;;;;;17.87;6.13;;;6.20;99.90;;;;;;7870614;28;20690;-87
2023/12/17 11:40:06;;;;;;;13.43;6.00;;;6.20;99.90;;;;;;7844447;28;20205;-87
2023/12/17 11:43:54;;;;;;;11.83;5.03;;;6.30;99.90;;;;;;7838532;28;20186;-87
2023/12/17 11:47:39;;;;;;;14.40;5.03;;;6.30;99.90;;;;;;7851240;28;20259;-86
2023/12/17 11:51:25;;;;;;;10.00;5.20;;;6.50;99.90;;;;;;7839150;28;20198;-87
2023/12/17 11:55:11;;;;;;;10.90;5.63;;;6.50;99.90;;;;;;7837627;28;20202;-88
2023/12/17 11:59:05;;;;;;;11.40;5.63;;;6.50;99.90;;;;;;7846912;28;20223;-87
2023/12/17 12:02:50;;;;;;;11.00;5.67;;;6.50;99.90;;;;;;7864992;28;20275;-88
2023/12/17 12:06:39;;;;;;;11.70;6.60;;;6.60;99.90;;;;;;7850066;28;20255;-87
2023/12/17 12:10:24;;;;;;;10.87;5.90;;;6.60;99.90;;;;;;7852505;28;20553;-87
2023/12/17 12:14:10;;;;;;;11.30;6.00;;;6.60;99.90;;;;;;7837863;28;20306;-87
2023/12/17 12:18:03;;;;;;;10.93;5.77;;;6.60;99.90;;;;;;7855842;28;20222;-87
2023/12/17 12:21:51;;;;;;;14.93;6.93;;;6.60;99.90;;;;;;7867511;28;20207;-88
2023/12/17 12:25:44;;;;;;;14.57;5.33;;;6.60;99.90;;;;;;7867317;28;20258;-88
2023/12/17 12:29:37;;;;;;;11.53;5.40;;;6.60;99.90;;;;;;7869002;28;20683;-88
2023/12/17 12:33:26;;;;;;;10.50;5.37;;;6.60;99.90;;;;;;7867973;28;20177;-88
2023/12/17 12:37:29;;;;;;;9.73;5.10;;;6.70;99.90;;;;;;7855233;28;20201;-88
2023/12/17 12:41:20;;;;;;;9.60;5.07;;;6.70;99.90;;;;;;7864285;28;20192;-89
2023/12/17 12:45:06;;;;;;;12.30;5.67;;;6.80;99.90;;;;;;7866916;28;20197;-87
2023/12/17 12:49:00;;;;;;;13.33;6.53;;;6.80;99.90;;;;;;7869100;28;20177;-87
2023/12/17 12:52:45;;;;;;;13.07;6.47;;;6.80;99.90;;;;;;7862882;28;20212;-88
2023/12/17 12:56:31;;;;;;;19.03;9.17;;;6.90;99.90;;;;;;7865048;28;20701;-87
2023/12/17 13:00:29;;;;;;;9.77;5.20;;;6.90;99.90;;;;;;7849740;28;20769;-88
2023/12/17 13:04:20;;;;;;;17.10;7.10;;;6.90;99.90;;;;;;7835800;28;20177;-89
2023/12/17 13:08:08;;;;;;;12.23;7.70;;;6.90;99.90;;;;;;7860176;28;20193;-88
2023/12/17 13:11:56;;;;;;;10.00;5.17;;;6.90;99.90;;;;;;7888481;28;20224;-90
2023/12/17 13:15:50;;;;;;;11.47;6.50;;;7.10;99.90;;;;;;7912140;28;20197;-91
2023/12/17 13:19:44;;;;;;;9.63;5.00;;;7.00;99.90;;;;;;7861135;28;20642;-87
2023/12/17 13:23:38;;;;;;;13.03;6.00;;;6.90;99.90;;;;;;7845800;28;20181;-88
2023/12/17 13:27:25;;;;;;;14.13;6.30;;;6.90;99.90;;;;;;7842249;28;20213;-88
2023/12/17 13:31:11;;;;;;;10.10;5.87;;;6.90;99.90;;;;;;7850021;28;20189;-88
2023/12/17 13:34:57;;;;;;;13.20;5.90;;;6.80;99.90;;;;;;7873213;28;20197;-87
2023/12/17 13:38:43;;;;;;;13.77;7.10;;;6.80;99.90;;;;;;7874692;28;20694;-88
2023/12/17 13:42:28;;;;;;;13.53;6.27;;;6.80;99.90;;;;;;7844060;28;20561;-87
2023/12/17 13:46:16;;;;;;;13.13;5.90;;;6.80;99.90;;;;;;7850115;28;20208;-88
2023/12/17 13:50:03;;;;;;;10.03;5.50;;;6.80;99.90;;;;;;7873481;28;20181;-87
2023/12/17 13:53:49;;;;;;;19.73;7.77;;;6.90;99.90;;;;;;7872718;28;20231;-87
2023/12/17 13:57:40;;;;;;;59.33;23.47;;;6.80;99.90;;;;;;7872890;28;20197;-87
2023/12/17 14:01:29;;;;;;;35.57;14.33;;;6.80;99.90;;;;;;7873051;28;20226;-87
2023/12/17 14:05:14;;;;;;;29.53;14.33;;;6.70;99.90;;;;;;7856675;28;20202;-88
2023/12/17 14:09:00;;;;;;;29.07;11.47;;;6.80;99.90;;;;;;7846658;28;20203;-86
2023/12/17 14:12:45;;;;;;;18.90;9.50;;;6.70;99.90;;;;;;7841259;28;20208;-89
2023/12/17 14:16:31;;;;;;;16.63;8.40;;;6.70;99.90;;;;;;7840881;28;20209;-88
2023/12/17 14:20:17;;;;;;;14.57;8.03;;;6.60;99.90;;;;;;7840508;28;20214;-87
2023/12/17 14:24:07;;;;;;;13.70;7.00;;;6.60;99.90;;;;;;7841190;28;20174;-88
2023/12/17 14:27:52;;;;;;;14.63;6.60;;;6.60;99.90;;;;;;7841145;28;20209;-88
2023/12/17 14:31:39;;;;;;;10.67;6.33;;;6.60;99.90;;;;;;7840929;28;20189;-87
2023/12/17 14:35:25;;;;;;;11.40;6.33;;;6.50;99.90;;;;;;7839856;28;20209;-88
2023/12/17 14:39:11;;;;;;;12.70;6.57;;;6.50;99.90;;;;;;7865890;28;20287;-86
2023/12/17 14:42:57;;;;;;;10.23;5.03;;;6.50;99.90;;;;;;7857847;28;20177;-87
2023/12/17 14:46:42;;;;;;;9.93;4.07;;;6.40;99.90;;;;;;7870418;28;20207;-86
2023/12/17 14:50:31;;;;;;;195.27;103.07;;;6.30;99.90;;;;;;7870303;28;20177;-86
2023/12/17 14:54:17;;;;;;;11.30;6.67;;;6.40;99.90;;;;;;7869940;28;20725;-87
2023/12/17 14:58:07;;;;;;;7.97;4.27;;;6.30;99.90;;;;;;7869953;28;20589;-87
2023/12/17 15:01:55;;;;;;;10.70;4.20;;;6.30;99.90;;;;;;7864866;28;20230;-85
2023/12/17 15:05:41;;;;;;;13.38;5.10;;;6.20;99.90;;;;;;7869093;28;20410;-86
2023/12/17 15:09:28;;;;;;;9.90;4.47;;;6.40;99.90;;;;;;7870330;28;20208;-87
2023/12/17 15:13:14;;;;;;;8.87;4.27;;;6.30;99.90;;;;;;7870711;28;20173;-87
2023/12/17 15:17:00;;;;;;;8.37;3.53;;;6.20;99.90;;;;;;7851147;28;20198;-85
2023/12/17 15:20:45;;;;;;;9.17;4.63;;;6.10;99.90;;;;;;7838231;28;20220;-87
2023/12/17 15:24:31;;;;;;;18.80;8.83;;;6.00;99.90;;;;;;7838342;28;20201;-87
2023/12/17 15:28:18;;;;;;;50.77;27.73;;;6.00;99.90;;;;;;7838026;28;20293;-87
2023/12/17 15:32:05;;;;;;;17.80;10.30;;;5.90;99.90;;;;;;7848069;28;20177;-87
2023/12/17 15:35:50;;;;;;;9.90;4.33;;;6.00;99.90;;;;;;7868868;28;20197;-87
2023/12/17 15:39:36;;;;;;;6.93;3.50;;;6.10;99.90;;;;;;7864329;28;20194;-86
2023/12/17 15:43:22;;;;;;;8.53;3.13;;;6.10;99.90;;;;;;7849041;28;20601;-87
2023/12/17 15:47:08;;;;;;;6.50;3.43;;;6.20;99.90;;;;;;7837182;28;20584;-86
2023/12/17 15:50:55;;;;;;;9.10;3.93;;;6.10;99.90;;;;;;7837626;28;20205;-85
2023/12/17 15:54:40;;;;;;;7.67;3.67;;;6.10;99.90;;;;;;7837217;28;20210;-86
2023/12/17 15:58:26;;;;;;;7.13;3.70;;;6.00;99.90;;;;;;7838548;28;20801;-85
2023/12/17 16:02:11;;;;;;;10.00;3.47;;;6.00;99.90;;;;;;7837164;28;20216;-86
2023/12/17 16:05:59;;;;;;;10.83;3.50;;;6.00;99.90;;;;;;7842504;28;20197;-87
2023/12/17 16:09:45;;;;;;;10.13;3.80;;;6.00;99.90;;;;;;7863832;28;20207;-87
2023/12/17 16:13:31;;;;;;;6.67;3.67;;;6.00;99.90;;;;;;7855786;28;20177;-86
2023/12/17 16:17:18;;;;;;;7.87;3.83;;;6.00;99.90;;;;;;7865487;28;20205;-87
2023/12/17 16:21:03;;;;;;;28.65;6.00;;;6.00;99.90;;;;;;7864985;28;20992;-85
2023/12/17 16:24:50;;;;;;;10.57;5.07;;;6.10;99.90;;;;;;7867472;28;20546;-85
2023/12/17 16:28:36;;;;;;;9.87;5.60;;;6.00;99.90;;;;;;7838302;28;20186;-86
2023/12/17 16:32:22;;;;;;;10.20;4.60;;;6.00;99.90;;;;;;7853106;28;20256;-85
2023/12/17 16:36:08;;;;;;;9.20;4.97;;;5.80;99.90;;;;;;7844434;28;20208;-86
2023/12/17 16:39:53;;;;;;;9.80;5.27;;;5.80;99.90;;;;;;7844303;28;20209;-85
2023/12/17 16:43:40;;;;;;;12.03;6.10;;;5.70;99.90;;;;;;7866747;28;20173;-87
2023/12/17 16:47:26;;;;;;;9.40;5.60;;;5.60;99.90;;;;;;7851859;28;20201;-86
2023/12/17 16:51:12;;;;;;;13.93;7.47;;;5.60;99.90;;;;;;7838350;28;20189;-85
2023/12/17 16:54:57;;;;;;;16.37;8.70;;;5.50;99.90;;;;;;7845744;28;20255;-86
2023/12/17 16:58:43;;;;;;;18.20;8.33;;;5.50;99.90;;;;;;7851730;28;20210;-86
2023/12/17 17:02:29;;;;;;;19.20;9.73;;;5.50;99.90;;;;;;7850694;28;20177;-86
2023/12/17 17:06:14;;;;;;;20.13;10.00;;;5.50;99.90;;;;;;7859472;28;20752;-86
2023/12/17 17:10:00;;;;;;;17.10;8.47;;;5.60;99.90;;;;;;7848889;28;20186;-85
2023/12/17 17:13:45;;;;;;;18.70;8.20;;;5.40;99.90;;;;;;7866250;28;20246;-87
2023/12/17 17:17:31;;;;;;;18.23;9.13;;;5.30;99.90;;;;;;7850225;28;20201;-85
2023/12/17 17:21:17;;;;;;;16.60;8.77;;;5.30;99.90;;;;;;7843576;28;20323;-86
2023/12/17 17:25:03;;;;;;;19.40;10.43;;;5.30;99.90;;;;;;7865101;28;20208;-87
2023/12/17 17:28:48;;;;;;;30.93;15.23;;;5.20;99.90;;;;;;7864300;28;20326;-85
2023/12/17 17:32:34;;;;;;;31.00;15.20;;;5.20;99.90;;;;;;7866351;28;20219;-85
2023/12/17 17:36:20;;;;;;;36.83;17.23;;;5.20;99.90;;;;;;7866433;28;20212;-86
2023/12/17 17:40:07;;;;;;;33.00;15.93;;;5.20;99.90;;;;;;7868114;28;20201;-87
2023/12/17 17:43:53;;;;;;;31.50;15.30;;;5.10;99.90;;;;;;7871481;28;20182;-86
2023/12/17 17:47:39;;;;;;;30.30;15.30;;;5.20;99.90;;;;;;7887195;28;20239;-86
2023/12/17 17:51:25;;;;;;;29.60;15.60;;;5.10;99.90;;;;;;7862571;28;20186;-85
2023/12/17 17:55:10;;;;;;;32.03;17.27;;;5.10;99.90;;;;;;7839458;28;20213;-86
2023/12/17 17:58:56;;;;;;;30.27;16.47;;;5.10;99.90;;;;;;7840853;28;20217;-85
2023/12/17 18:02:42;;;;;;;27.57;17.77;;;5.10;99.90;;;;;;7862739;28;20180;-85
2023/12/17 18:06:30;;;;;;;16.87;10.53;;;5.00;99.90;;;;;;7865420;28;20651;-86
2023/12/17 18:10:16;;;;;;;21.93;12.00;;;5.10;99.90;;;;;;7868679;28;20272;-86
2023/12/17 18:14:04;;;;;;;17.30;8.60;;;5.30;99.90;;;;;;7868850;28;20193;-86
2023/12/17 18:17:50;;;;;;;14.50;8.60;;;5.40;99.90;;;;;;7869184;28;20201;-85
2023/12/17 18:21:37;;;;;;;17.80;10.50;;;5.30;99.90;;;;;;7870564;28;20619;-86
2023/12/17 18:25:24;;;;;;;16.17;9.17;;;5.40;99.90;;;;;;7869722;28;20182;-85
2023/12/17 18:29:11;;;;;;;17.17;8.20;;;5.30;99.90;;;;;;7869138;28;20177;-86
2023/12/17 18:32:56;;;;;;;16.27;9.33;;;5.40;99.90;;;;;;7859757;28;20698;-85
2023/12/17 18:36:44;;;;;;;18.27;12.63;;;5.40;99.90;;;;;;7859615;28;20703;-86
2023/12/17 18:40:30;;;;;;;15.30;9.77;;;5.40;99.90;;;;;;7867557;28;20224;-85
2023/12/17 18:44:15;;;;;;;27.40;16.23;;;5.40;99.90;;;;;;7868847;28;20150;-85
2023/12/17 18:48:01;;;;;;;21.40;11.67;;;5.50;99.90;;;;;;7851996;28;20212;-86
2023/12/17 18:51:47;;;;;;;20.33;10.70;;;5.50;99.90;;;;;;7858609;28;20186;-86
2023/12/17 18:55:32;;;;;;;16.90;7.20;;;5.50;99.90;;;;;;7869976;28;20212;-85
2023/12/17 18:59:18;;;;;;;12.33;6.77;;;5.70;99.90;;;;;;7856781;28;20201;-86
2023/12/17 19:03:08;;;;;;;23.93;8.90;;;5.60;99.90;;;;;;7870544;28;20246;-86
2023/12/17 19:06:53;;;;;;;22.70;9.23;;;5.70;99.90;;;;;;7870641;28;20205;-87
2023/12/17 19:10:39;;;;;;;16.10;7.87;;;5.80;99.90;;;;;;7869736;28;20188;-86
2023/12/17 19:14:24;;;;;;;13.33;7.40;;;5.70;99.90;;;;;;7847668;28;20186;-86
2023/12/17 19:18:10;;;;;;;13.43;7.57;;;5.80;99.90;;;;;;7847819;28;20201;-85
2023/12/17 19:21:56;;;;;;;14.60;7.30;;;5.80;99.90;;;;;;7861459;28;20616;-85
2023/12/17 19:25:43;;;;;;;11.17;6.73;;;5.80;99.90;;;;;;7866358;28;20268;-83
2023/12/17 19:29:33;;;;;;;11.23;6.27;;;5.80;99.90;;;;;;7840467;28;20176;-83
2023/12/17 19:33:19;;;;;;;7.27;4.23;;;5.80;99.90;;;;;;7833104;28;20232;-84
2023/12/17 19:37:05;;;;;;;6.80;3.40;;;5.80;99.90;;;;;;7846995;28;20259;-84
2023/12/17 19:40:50;;;;;;;5.90;3.37;;;5.80;99.90;;;;;;7857805;28;20236;-85
2023/12/17 19:44:36;;;;;;;3.83;2.77;;;5.90;99.90;;;;;;7842093;28;20254;-86